createdAt,value
2019-03-20T00:01:25.039Z,6.90
2019-03-20T00:03:56.478Z,7.77
2019-03-20T00:06:27.960Z,9.25
2019-03-20T00:09:00.122Z,12.60
2019-03-20T00:11:32.118Z,3.13
2019-03-20T00:14:05.228Z,7.37
2019-03-20T00:16:37.109Z,11.73
2019-03-20T00:19:08.441Z,5.80
2019-03-20T00:21:41.302Z,7.43
2019-03-20T00:24:12.674Z,7.63
2019-03-20T00:26:43.927Z,10.50
2019-03-20T00:29:15.203Z,7.93
2019-03-20T00:31:46.583Z,9.15
2019-03-20T00:34:18.239Z,4.10
2019-03-20T00:36:49.444Z,4.47
2019-03-20T00:39:20.683Z,7.70
2019-03-20T00:41:51.896Z,5.27
2019-03-20T00:44:31.233Z,5.65
2019-03-20T00:47:02.822Z,13.10
2019-03-20T00:49:34.108Z,7.33
2019-03-20T00:52:05.315Z,12.18
2019-03-20T00:54:39.362Z,5.33
2019-03-20T00:57:10.655Z,8.27
2019-03-20T00:59:42.160Z,10.63
2019-03-20T01:02:13.433Z,6.40
2019-03-20T01:04:44.651Z,9.50
2019-03-20T01:07:17.234Z,8.20
2019-03-20T01:09:50.028Z,10.47
2019-03-20T01:12:22.708Z,3.83
2019-03-20T01:14:54.179Z,5.47
2019-03-20T01:17:25.454Z,4.67
2019-03-20T01:19:56.773Z,6.95
2019-03-20T01:22:29.183Z,8.87
2019-03-20T01:25:00.548Z,13.00
2019-03-20T01:27:31.792Z,9.43
2019-03-20T01:30:03.161Z,9.40
2019-03-20T01:32:34.713Z,12.07
2019-03-20T01:35:07.783Z,12.37
2019-03-20T01:37:39.072Z,12.58
2019-03-20T01:40:10.337Z,6.78
2019-03-20T01:42:41.910Z,10.80
2019-03-20T01:45:13.416Z,9.70
2019-03-20T01:47:44.694Z,7.70
2019-03-20T01:50:16.515Z,6.37
2019-03-20T01:52:48.119Z,5.40
2019-03-20T01:55:19.374Z,8.63
2019-03-20T01:57:50.952Z,6.28
2019-03-20T02:00:22.319Z,4.90
2019-03-20T02:02:53.775Z,7.95
2019-03-20T02:05:35.078Z,11.83
2019-03-20T02:08:03.561Z,9.15
2019-03-20T02:10:34.843Z,6.37
2019-03-20T02:13:06.070Z,12.13
2019-03-20T02:15:39.513Z,4.40
2019-03-20T02:18:11.023Z,10.53
2019-03-20T02:20:42.319Z,6.85
2019-03-20T02:23:13.514Z,2.15
2019-03-20T02:25:44.816Z,5.53
2019-03-20T02:28:16.173Z,9.28
2019-03-20T02:30:47.403Z,4.00
2019-03-20T02:33:18.523Z,10.68
2019-03-20T02:35:51.713Z,5.30
2019-03-20T02:38:22.636Z,7.60
2019-03-20T02:40:53.871Z,5.90
2019-03-20T02:43:24.986Z,8.65
2019-03-20T02:45:57.070Z,4.92
2019-03-20T02:48:29.374Z,9.10
2019-03-20T02:51:00.632Z,6.33
2019-03-20T02:53:33.385Z,13.53
2019-03-20T02:56:04.745Z,6.13
2019-03-20T02:58:36.090Z,5.50
2019-03-20T03:01:07.643Z,5.40
2019-03-20T03:03:38.894Z,8.85
2019-03-20T03:06:10.515Z,3.75
2019-03-20T03:08:42.070Z,5.40
2019-03-20T03:11:13.714Z,6.42
2019-03-20T03:13:44.872Z,4.03
2019-03-20T03:16:16.091Z,2.60
2019-03-20T03:18:47.233Z,3.58
2019-03-20T03:21:18.378Z,6.30
2019-03-20T03:23:50.288Z,26.27
2019-03-20T03:26:21.438Z,3.95
2019-03-20T03:28:53.007Z,5.80
2019-03-20T03:31:24.455Z,8.13
2019-03-20T03:33:55.974Z,4.80
2019-03-20T03:36:27.171Z,7.13
2019-03-20T03:38:58.398Z,8.80
2019-03-20T03:41:30.089Z,6.33
2019-03-20T03:44:01.348Z,3.47
2019-03-20T03:46:32.549Z,8.05
2019-03-20T03:49:05.053Z,4.63
2019-03-20T03:51:36.227Z,9.28
2019-03-20T03:54:07.402Z,5.78
2019-03-20T03:56:38.736Z,5.50
2019-03-20T03:59:10.499Z,4.07
2019-03-20T04:01:41.771Z,9.75
2019-03-20T04:04:12.973Z,4.25
2019-03-20T04:06:44.297Z,5.57
2019-03-20T04:09:15.492Z,6.47
2019-03-20T04:11:46.763Z,4.73
2019-03-20T04:14:18.017Z,1.70
2019-03-20T04:16:49.872Z,8.85
2019-03-20T04:19:21.085Z,6.30
2019-03-20T04:21:52.220Z,6.23
2019-03-20T04:24:23.434Z,4.77
2019-03-20T04:26:54.654Z,9.50
2019-03-20T04:29:25.904Z,9.88
2019-03-20T04:31:57.958Z,4.10
2019-03-20T04:34:30.965Z,8.53
2019-03-20T04:37:03.202Z,10.40
2019-03-20T04:39:35.472Z,3.77
2019-03-20T04:42:06.675Z,6.50
2019-03-20T04:44:39.912Z,7.30
2019-03-20T04:47:11.092Z,12.07
2019-03-20T04:49:43.750Z,7.60
2019-03-20T04:52:14.973Z,6.73
2019-03-20T04:54:46.160Z,8.60
2019-03-20T04:57:18.437Z,10.07
2019-03-20T04:59:49.950Z,10.70
2019-03-20T05:02:21.574Z,7.83
2019-03-20T05:04:52.891Z,6.93
2019-03-20T05:07:24.074Z,7.90
2019-03-20T05:09:55.434Z,12.68
2019-03-20T05:12:27.527Z,9.75
2019-03-20T05:14:58.820Z,10.53
2019-03-20T05:17:29.997Z,15.13
2019-03-20T05:20:01.186Z,12.40
2019-03-20T05:22:32.384Z,14.70
2019-03-20T05:25:03.532Z,11.85
2019-03-20T05:27:35.130Z,14.83
2019-03-20T05:30:06.962Z,19.52
2019-03-20T05:32:38.194Z,16.70
2019-03-20T05:35:10.469Z,13.90
2019-03-20T05:37:41.887Z,8.90
2019-03-20T05:40:13.591Z,11.88
2019-03-20T05:42:45.365Z,15.95
2019-03-20T05:45:16.821Z,12.55
2019-03-20T05:47:48.488Z,13.13
2019-03-20T05:50:19.803Z,20.70
2019-03-20T05:52:51.025Z,11.08
2019-03-20T05:55:22.359Z,20.85
2019-03-20T05:57:53.640Z,18.12
2019-03-20T06:00:32.424Z,17.87
2019-03-20T06:03:03.669Z,14.00
2019-03-20T06:05:34.887Z,14.35
2019-03-20T06:08:06.180Z,17.20
2019-03-20T06:10:37.587Z,14.07
2019-03-20T06:13:09.907Z,16.35
2019-03-20T06:15:41.140Z,17.73
2019-03-20T06:18:12.763Z,15.65
2019-03-20T06:20:44.000Z,16.33
2019-03-20T06:23:17.830Z,18.85
2019-03-20T06:25:51.337Z,15.80
2019-03-20T06:28:22.368Z,17.30
2019-03-20T06:30:53.704Z,18.50
2019-03-20T06:33:24.870Z,26.65
2019-03-20T06:35:56.944Z,19.77
2019-03-20T06:38:29.516Z,19.63
2019-03-20T06:41:04.868Z,21.25
2019-03-20T06:43:37.380Z,17.50
2019-03-20T06:46:08.539Z,27.20
2019-03-20T06:48:39.944Z,23.75
2019-03-20T06:51:14.337Z,21.23
2019-03-20T06:53:45.649Z,24.33
2019-03-20T06:56:16.932Z,28.80
2019-03-20T06:58:50.231Z,19.95
2019-03-20T07:01:27.172Z,31.43
2019-03-20T07:04:42.515Z,17.98
2019-03-20T07:07:43.554Z,20.82
2019-03-20T07:10:14.421Z,22.98
2019-03-20T07:12:45.723Z,22.13
2019-03-20T07:15:16.963Z,26.37
2019-03-20T07:17:48.408Z,23.07
2019-03-20T07:20:19.841Z,26.93
2019-03-20T07:22:51.036Z,26.73
2019-03-20T07:25:22.454Z,25.27
2019-03-20T07:27:54.752Z,24.12
2019-03-20T07:30:26.118Z,36.00
2019-03-20T07:32:57.952Z,32.42
2019-03-20T07:35:32.011Z,22.67
2019-03-20T07:38:03.350Z,30.40
2019-03-20T07:40:34.557Z,22.48
2019-03-20T07:43:09.054Z,29.63
2019-03-20T07:45:39.119Z,31.62
2019-03-20T07:48:21.245Z,26.02
2019-03-20T07:50:43.273Z,35.45
2019-03-20T07:53:15.179Z,35.50
2019-03-20T07:55:46.443Z,23.90
2019-03-20T07:58:17.756Z,23.10
2019-03-20T08:00:48.999Z,29.92
2019-03-20T08:03:20.262Z,28.38
2019-03-20T08:05:51.451Z,23.15
2019-03-20T08:08:24.617Z,33.45
2019-03-20T08:10:56.872Z,34.55
2019-03-20T08:13:28.219Z,29.45
2019-03-20T08:15:59.971Z,26.62
2019-03-20T08:18:31.704Z,31.30
2019-03-20T08:21:02.723Z,29.85
2019-03-20T08:23:34.588Z,25.10
2019-03-20T08:26:06.633Z,26.57
2019-03-20T08:28:37.892Z,33.30
2019-03-20T08:31:09.236Z,27.65
2019-03-20T08:33:40.473Z,23.50
2019-03-20T08:36:11.863Z,23.62
2019-03-20T08:38:43.141Z,29.70
2019-03-20T08:41:14.392Z,30.43
2019-03-20T08:43:45.785Z,32.65
2019-03-20T08:46:17.109Z,27.10
2019-03-20T08:48:48.776Z,20.95
2019-03-20T08:51:19.952Z,35.15
2019-03-20T08:53:56.233Z,31.15
2019-03-20T08:56:27.631Z,24.00
2019-03-20T08:58:58.929Z,27.77
2019-03-20T09:01:30.184Z,19.87
2019-03-20T09:04:02.992Z,37.75
2019-03-20T09:06:34.582Z,24.32
2019-03-20T09:09:08.981Z,31.65
2019-03-20T09:11:40.273Z,24.32
2019-03-20T09:14:11.469Z,28.17
2019-03-20T09:16:43.022Z,35.75
2019-03-20T09:19:15.077Z,30.40
2019-03-20T09:21:46.330Z,37.20
2019-03-20T09:24:17.631Z,38.80
2019-03-20T09:26:49.366Z,29.15
2019-03-20T09:29:20.891Z,48.70
2019-03-20T09:31:52.568Z,34.75
2019-03-20T09:34:25.059Z,38.02
2019-03-20T09:36:56.284Z,34.60
2019-03-20T09:39:27.713Z,31.57
2019-03-20T09:41:58.870Z,35.58
2019-03-20T09:44:31.019Z,44.27
2019-03-20T09:47:02.285Z,42.23
2019-03-20T09:49:33.524Z,43.33
2019-03-20T09:52:04.797Z,41.60
2019-03-20T09:54:35.992Z,37.20
2019-03-20T09:57:07.385Z,45.40
2019-03-20T09:59:38.739Z,39.50
2019-03-20T10:02:14.426Z,41.28
2019-03-20T10:04:51.428Z,43.05
2019-03-20T10:07:25.189Z,49.03
2019-03-20T10:09:56.526Z,31.00
2019-03-20T10:12:28.082Z,52.33
2019-03-20T10:14:59.379Z,50.03
2019-03-20T10:17:30.574Z,49.23
2019-03-20T10:20:01.929Z,41.37
2019-03-20T10:22:33.224Z,47.78
2019-03-20T10:25:05.366Z,49.27
2019-03-20T10:27:37.636Z,42.95
2019-03-20T10:30:12.321Z,27.98
2019-03-20T10:32:43.925Z,53.50
2019-03-20T10:35:15.152Z,46.53
2019-03-20T10:37:46.354Z,53.50
2019-03-20T10:40:19.846Z,31.73
2019-03-20T10:42:52.300Z,56.65
2019-03-20T10:45:24.157Z,55.63
2019-03-20T10:47:55.788Z,40.15
2019-03-20T10:50:27.000Z,56.40
2019-03-20T10:52:58.309Z,33.92
2019-03-20T10:55:29.625Z,58.40
2019-03-20T10:58:01.807Z,41.15
2019-03-20T11:00:33.393Z,57.45
2019-03-20T11:03:04.824Z,59.63
2019-03-20T11:05:36.639Z,56.60
2019-03-20T11:08:07.854Z,59.48
2019-03-20T11:10:39.272Z,54.10
2019-03-20T11:13:10.901Z,38.33
2019-03-20T11:15:42.189Z,55.65
2019-03-20T11:18:13.436Z,53.85
2019-03-20T11:20:44.607Z,63.73
2019-03-20T11:23:17.792Z,64.17
2019-03-20T11:25:50.230Z,59.48
2019-03-20T11:28:21.397Z,36.98
2019-03-20T11:30:52.587Z,54.00
2019-03-20T11:33:23.896Z,50.55
2019-03-20T11:35:55.094Z,46.77
2019-03-20T11:38:26.428Z,44.42
2019-03-20T11:40:57.623Z,53.80
2019-03-20T11:43:28.858Z,55.83
2019-03-20T11:46:00.085Z,42.40
2019-03-20T11:48:33.423Z,40.25
2019-03-20T11:51:04.765Z,48.20
2019-03-20T11:53:35.984Z,49.33
2019-03-20T11:56:07.588Z,57.73
2019-03-20T11:58:39.750Z,46.73
2019-03-20T12:01:10.974Z,42.45
2019-03-20T12:03:43.584Z,44.40
2019-03-20T12:06:15.456Z,40.17
2019-03-20T12:08:48.274Z,39.67
2019-03-20T12:11:19.892Z,51.55
2019-03-20T12:13:51.310Z,53.52
2019-03-20T12:16:23.306Z,45.30
2019-03-20T12:18:54.464Z,48.55
2019-03-20T12:21:25.807Z,49.23
2019-03-20T12:23:57.243Z,55.58
2019-03-20T12:26:28.479Z,47.17
2019-03-20T12:28:59.844Z,44.42
2019-03-20T12:31:31.114Z,39.92
2019-03-20T12:34:02.411Z,33.85
2019-03-20T12:36:33.606Z,51.85
2019-03-20T12:39:08.358Z,53.35
2019-03-20T12:41:39.659Z,49.45
2019-03-20T12:44:10.982Z,39.67
2019-03-20T12:46:42.235Z,39.90
2019-03-20T12:49:13.399Z,44.20
2019-03-20T12:51:44.640Z,57.33
2019-03-20T12:54:15.902Z,51.98
2019-03-20T12:56:50.748Z,38.95
2019-03-20T12:59:21.981Z,61.08
2019-03-20T13:01:53.250Z,65.47
2019-03-20T13:04:24.819Z,47.05
2019-03-20T13:06:56.011Z,55.67
2019-03-20T13:09:27.213Z,59.95
2019-03-20T13:11:59.028Z,68.00
2019-03-20T13:14:30.172Z,75.92
2019-03-20T13:17:01.374Z,52.30
2019-03-20T13:19:33.185Z,76.72
2019-03-20T13:24:55.426Z,49.90
2019-03-20T13:27:26.844Z,73.15
2019-03-20T13:29:58.092Z,52.48
2019-03-20T13:32:29.388Z,59.00
2019-03-20T13:35:00.608Z,73.92
2019-03-20T13:37:31.820Z,72.95
2019-03-20T13:40:13.635Z,83.15
2019-03-20T13:42:36.392Z,55.63
2019-03-20T13:45:09.989Z,45.83
2019-03-20T13:47:42.932Z,53.95
2019-03-20T13:50:17.230Z,39.23
2019-03-20T13:52:48.460Z,41.65
2019-03-20T13:55:19.660Z,75.97
2019-03-20T13:58:07.368Z,71.65
2019-03-20T14:00:38.601Z,54.60
2019-03-20T14:03:09.920Z,68.60
2019-03-20T14:05:41.173Z,62.60
2019-03-20T14:08:12.706Z,69.50
2019-03-20T14:10:50.274Z,72.92
2019-03-20T14:13:18.938Z,64.07
2019-03-20T14:15:50.340Z,60.78
2019-03-20T14:18:21.541Z,54.03
2019-03-20T14:20:54.035Z,55.38
2019-03-20T14:23:48.752Z,55.65
2019-03-20T14:26:20.041Z,35.30
2019-03-20T14:28:52.594Z,41.85
2019-03-20T14:31:23.923Z,34.78
2019-03-20T14:33:55.212Z,55.60
2019-03-20T14:36:32.376Z,52.40
2019-03-20T14:39:05.104Z,56.20
2019-03-20T14:41:39.318Z,51.05
2019-03-20T14:44:11.054Z,45.40
2019-03-20T14:46:42.289Z,51.05
2019-03-20T14:49:13.547Z,48.40
2019-03-20T14:51:45.433Z,34.75
2019-03-20T14:54:16.605Z,43.78
2019-03-20T14:56:48.667Z,31.00
2019-03-20T14:59:19.969Z,45.70
2019-03-20T15:01:51.232Z,41.55
2019-03-20T15:04:22.416Z,33.45
2019-03-20T15:06:53.667Z,42.88
2019-03-20T15:09:24.777Z,28.35
2019-03-20T15:11:56.231Z,35.83
2019-03-20T15:14:29.041Z,36.28
2019-03-20T15:17:00.368Z,35.10
2019-03-20T15:19:31.620Z,52.58
2019-03-20T15:22:02.858Z,54.50
2019-03-20T15:24:34.157Z,53.63
2019-03-20T15:27:05.603Z,54.70
2019-03-20T15:29:36.836Z,57.43
2019-03-20T15:32:10.792Z,46.88
2019-03-20T15:34:42.027Z,58.08
2019-03-20T15:37:14.178Z,59.05
2019-03-20T15:39:46.748Z,25.02
2019-03-20T15:42:18.024Z,60.23
2019-03-20T15:44:49.191Z,57.48
2019-03-20T15:47:23.094Z,82.27
2019-03-20T15:49:54.228Z,58.48
2019-03-20T15:52:26.671Z,43.63
2019-03-20T15:54:59.483Z,63.13
2019-03-20T15:57:32.527Z,63.33
2019-03-20T16:00:08.219Z,52.90
2019-03-20T16:02:40.348Z,56.68
2019-03-20T16:05:12.774Z,58.70
2019-03-20T16:07:43.976Z,59.20
2019-03-20T16:10:19.751Z,56.80
2019-03-20T16:12:53.798Z,38.20
2019-03-20T16:15:26.705Z,45.43
2019-03-20T16:18:03.350Z,49.03
2019-03-20T16:20:36.414Z,45.30
2019-03-20T16:23:07.618Z,49.98
2019-03-20T16:25:38.820Z,43.58
2019-03-20T16:28:11.610Z,44.03
2019-03-20T16:30:42.947Z,44.08
2019-03-20T16:33:14.388Z,40.85
2019-03-20T16:35:46.477Z,34.35
2019-03-20T16:38:18.364Z,28.05
2019-03-20T16:40:49.701Z,46.55
2019-03-20T16:43:24.717Z,49.33
2019-03-20T16:45:56.051Z,38.80
2019-03-20T16:48:32.035Z,46.48
2019-03-20T16:51:03.199Z,48.17
2019-03-20T16:53:39.097Z,45.48
2019-03-20T16:56:38.268Z,44.80
2019-03-20T16:59:15.659Z,43.58
2019-03-20T17:02:08.188Z,50.95
2019-03-20T17:04:43.362Z,32.13
2019-03-20T17:07:14.903Z,36.13
2019-03-20T17:09:46.173Z,50.33
2019-03-20T17:12:19.241Z,42.70
2019-03-20T17:14:53.279Z,45.17
2019-03-20T17:17:27.833Z,37.38
2019-03-20T17:19:59.056Z,40.40
2019-03-20T17:22:30.255Z,21.27
2019-03-20T17:25:01.519Z,35.23
2019-03-20T17:27:32.744Z,48.13
2019-03-20T17:30:04.666Z,43.92
2019-03-20T17:32:35.972Z,36.68
2019-03-20T17:35:09.294Z,37.58
2019-03-20T17:37:40.463Z,42.03
2019-03-20T17:40:13.331Z,33.78
2019-03-20T17:42:44.571Z,39.92
2019-03-20T17:45:16.982Z,40.63
2019-03-20T17:47:49.670Z,38.42
2019-03-20T17:50:22.822Z,36.55
2019-03-20T17:52:56.827Z,36.88
2019-03-20T17:55:28.357Z,40.98
2019-03-20T17:57:59.657Z,39.53
2019-03-20T18:00:44.975Z,37.28
2019-03-20T18:03:16.224Z,38.65
2019-03-20T18:05:48.822Z,38.67
2019-03-20T18:08:20.621Z,36.85
2019-03-20T18:10:52.794Z,26.33
2019-03-20T18:13:24.109Z,43.50
2019-03-20T18:15:55.565Z,33.28
2019-03-20T18:18:26.890Z,41.48
2019-03-20T18:20:58.117Z,39.78
2019-03-20T18:23:29.306Z,38.15
2019-03-20T18:26:00.583Z,35.85
2019-03-20T18:28:31.800Z,39.78
2019-03-20T18:31:03.039Z,36.98
2019-03-20T18:33:34.342Z,36.10
2019-03-20T18:36:05.607Z,26.25
2019-03-20T18:38:37.283Z,22.90
2019-03-20T18:41:08.496Z,33.85
2019-03-20T18:43:39.727Z,23.60
2019-03-20T18:46:10.918Z,40.30
2019-03-20T18:48:42.422Z,41.05
2019-03-20T18:51:14.261Z,47.17
2019-03-20T18:53:47.683Z,43.45
2019-03-20T18:56:19.016Z,44.50
2019-03-20T18:58:50.337Z,44.85
2019-03-20T19:01:21.558Z,43.68
2019-03-20T19:03:52.916Z,47.30
2019-03-20T19:06:25.947Z,47.33
2019-03-20T19:08:57.281Z,53.95
2019-03-20T19:11:28.582Z,32.03
2019-03-20T19:14:01.121Z,37.17
2019-03-20T19:16:32.657Z,47.20
2019-03-20T19:19:04.056Z,53.02
2019-03-20T19:21:35.407Z,41.98
2019-03-20T19:24:06.607Z,53.68
2019-03-20T19:26:38.223Z,48.13
2019-03-20T19:29:09.810Z,49.63
2019-03-20T19:31:41.074Z,48.78
2019-03-20T19:34:12.331Z,48.23
2019-03-20T19:36:43.749Z,45.88
2019-03-20T19:39:14.882Z,52.78
2019-03-20T19:41:46.235Z,51.80
2019-03-20T19:44:17.501Z,44.73
2019-03-20T19:46:49.022Z,51.05
2019-03-20T19:49:20.250Z,51.75
2019-03-20T19:51:51.548Z,52.23
2019-03-20T19:54:22.818Z,30.48
2019-03-20T19:56:54.041Z,41.53
2019-03-20T19:59:25.489Z,47.73
2019-03-20T20:01:56.952Z,42.83
2019-03-20T20:04:28.604Z,37.25
2019-03-20T20:07:00.167Z,37.90
2019-03-20T20:09:32.673Z,40.58
2019-03-20T20:12:04.591Z,41.85
2019-03-20T20:14:35.841Z,39.90
2019-03-20T20:17:07.166Z,42.60
2019-03-20T20:19:38.317Z,44.80
2019-03-20T20:22:09.637Z,36.98
2019-03-20T20:24:40.943Z,42.95
2019-03-20T20:27:12.526Z,44.42
2019-03-20T20:29:43.761Z,38.08
2019-03-20T20:32:15.445Z,34.50
2019-03-20T20:34:46.809Z,47.25
2019-03-20T20:37:18.058Z,46.77
2019-03-20T20:39:49.298Z,41.92
2019-03-20T20:42:20.630Z,37.28
2019-03-20T20:44:51.870Z,46.48
2019-03-20T20:47:23.106Z,43.28
2019-03-20T20:49:57.007Z,32.65
2019-03-20T20:52:28.291Z,45.80
2019-03-20T20:54:59.549Z,43.02
2019-03-20T20:57:30.673Z,34.48
2019-03-20T21:00:02.832Z,45.92
2019-03-20T21:02:34.432Z,54.53
2019-03-20T21:05:06.039Z,56.20
2019-03-20T21:07:37.301Z,49.55
2019-03-20T21:10:09.066Z,55.35
2019-03-20T21:12:42.547Z,50.65
2019-03-20T21:15:34.389Z,48.38
2019-03-20T21:18:57.539Z,34.03
2019-03-20T21:21:35.208Z,60.23
2019-03-20T21:24:26.676Z,49.75
2019-03-20T21:27:41.206Z,48.33
2019-03-20T21:30:47.578Z,55.45
2019-03-20T21:33:53.277Z,59.75
2019-03-20T21:37:12.859Z,56.05
2019-03-20T21:39:44.860Z,41.63
2019-03-20T21:43:06.802Z,60.63
2019-03-20T21:46:10.254Z,50.08
2019-03-20T21:48:42.371Z,51.98
2019-03-20T21:51:20.373Z,54.67
2019-03-20T21:54:39.392Z,53.83
2019-03-20T21:57:34.563Z,53.30
2019-03-20T22:00:27.264Z,54.67
2019-03-20T22:02:59.083Z,51.75
2019-03-20T22:06:15.091Z,52.50
2019-03-20T22:08:47.087Z,51.77
2019-03-20T22:11:45.262Z,53.38
2019-03-20T22:14:17.173Z,38.30
2019-03-20T22:17:32.466Z,27.48
2019-03-20T22:20:46.852Z,58.58
2019-03-20T22:23:43.800Z,39.23
2019-03-20T22:26:56.319Z,29.72
2019-03-20T22:29:28.982Z,50.83
2019-03-20T22:32:50.182Z,51.68
2019-03-20T22:35:49.943Z,34.35
2019-03-20T22:39:23.809Z,55.95
2019-03-20T22:42:18.491Z,53.95
2019-03-20T22:45:16.137Z,50.30
2019-03-20T22:48:37.207Z,57.80
2019-03-20T22:51:35.180Z,60.55
2019-03-20T22:54:41.822Z,53.78
2019-03-20T22:57:31.404Z,39.25
2019-03-20T23:00:03.474Z,55.35
2019-03-20T23:02:42.378Z,58.58
2019-03-20T23:05:14.259Z,54.75
2019-03-20T23:07:46.078Z,42.50
2019-03-20T23:10:17.812Z,58.52
2019-03-20T23:12:50.177Z,40.98
2019-03-20T23:15:22.085Z,21.65
2019-03-20T23:17:53.962Z,63.20
2019-03-20T23:20:26.364Z,59.98
2019-03-20T23:22:58.155Z,44.85
2019-03-20T23:25:29.965Z,59.18
2019-03-20T23:28:02.045Z,53.50
2019-03-20T23:30:34.020Z,60.43
2019-03-20T23:33:06.848Z,60.35
2019-03-20T23:35:38.707Z,62.40
2019-03-20T23:38:10.811Z,40.17
2019-03-20T23:40:42.600Z,62.67
2019-03-20T23:43:14.390Z,70.42
2019-03-20T23:48:46.074Z,56.18
2019-03-20T23:51:19.298Z,59.80
2019-03-20T23:53:53.318Z,82.62
2019-03-20T23:56:26.334Z,77.65
2019-03-20T23:58:58.437Z,43.00
